createdAt,value
2018-08-09T00:01:41.144Z,5.00
2018-08-09T00:04:10.145Z,5.20
2018-08-09T00:06:39.335Z,5.20
2018-08-09T00:09:09.285Z,4.77
2018-08-09T00:11:38.372Z,5.30
2018-08-09T00:14:07.515Z,4.77
2018-08-09T00:16:36.580Z,6.47
2018-08-09T00:19:05.965Z,8.57
2018-08-09T00:21:35.459Z,5.90
2018-08-09T00:24:05.025Z,11.80
2018-08-09T00:26:34.059Z,6.50
2018-08-09T00:29:03.087Z,5.70
2018-08-09T00:31:32.800Z,7.07
2018-08-09T00:34:01.820Z,5.93
2018-08-09T00:36:30.881Z,7.63
2018-08-09T00:38:59.956Z,5.40
2018-08-09T00:41:29.091Z,5.27
2018-08-09T00:43:58.083Z,5.40
2018-08-09T00:46:27.089Z,6.70
2018-08-09T00:48:56.868Z,5.43
2018-08-09T00:51:25.920Z,6.43
2018-08-09T00:53:54.915Z,6.17
2018-08-09T00:56:23.976Z,5.40
2018-08-09T00:58:53.020Z,5.27
2018-08-09T01:01:22.644Z,7.10
2018-08-09T01:03:51.680Z,4.93
2018-08-09T01:06:20.727Z,5.70
2018-08-09T01:08:55.088Z,7.90
2018-08-09T01:11:24.121Z,5.97
2018-08-09T01:13:53.143Z,6.23
2018-08-09T01:16:22.121Z,5.50
2018-08-09T01:18:51.676Z,5.57
2018-08-09T01:21:20.752Z,5.07
2018-08-09T01:23:49.891Z,4.83
2018-08-09T01:26:18.911Z,10.10
2018-08-09T01:28:49.355Z,5.00
2018-08-09T01:31:28.828Z,5.40
2018-08-09T01:33:57.867Z,5.13
2018-08-09T01:36:26.878Z,4.57
2018-08-09T01:38:56.344Z,7.37
2018-08-09T01:41:26.555Z,4.97
2018-08-09T01:44:05.067Z,4.97
2018-08-09T01:46:34.792Z,5.07
2018-08-09T01:49:03.833Z,5.60
2018-08-09T01:51:32.883Z,7.23
2018-08-09T01:54:02.523Z,6.53
2018-08-09T01:56:31.570Z,6.80
2018-08-09T01:59:00.623Z,5.97
2018-08-09T02:01:29.625Z,5.07
2018-08-09T02:03:58.664Z,5.40
2018-08-09T02:06:27.745Z,5.53
2018-08-09T02:09:00.961Z,7.33
2018-08-09T02:11:29.946Z,5.63
2018-08-09T02:13:58.977Z,7.87
2018-08-09T02:16:28.096Z,11.67
2018-08-09T02:18:57.116Z,6.67
2018-08-09T02:21:26.173Z,7.13
2018-08-09T02:23:55.224Z,7.10
2018-08-09T02:26:24.272Z,9.93
2018-08-09T02:28:53.400Z,6.70
2018-08-09T02:31:22.428Z,7.57
2018-08-09T02:33:51.448Z,9.03
2018-08-09T02:36:20.476Z,7.43
2018-08-09T02:38:49.445Z,6.70
2018-08-09T02:41:18.481Z,6.23
2018-08-09T02:43:47.750Z,5.90
2018-08-09T02:46:16.784Z,8.80
2018-08-09T02:48:45.857Z,7.03
2018-08-09T02:51:17.699Z,5.50
2018-08-09T02:53:46.693Z,9.77
2018-08-09T02:56:16.583Z,7.73
2018-08-09T02:58:45.607Z,6.90
2018-08-09T03:01:14.649Z,5.73
2018-08-09T03:03:43.640Z,6.53
2018-08-09T03:06:12.656Z,6.43
2018-08-09T03:08:41.680Z,5.80
2018-08-09T03:11:10.676Z,6.77
2018-08-09T03:13:40.286Z,6.90
2018-08-09T03:16:09.290Z,5.77
2018-08-09T03:18:38.447Z,6.67
2018-08-09T03:21:07.453Z,6.63
2018-08-09T03:23:36.570Z,7.07
2018-08-09T03:26:05.811Z,6.07
2018-08-09T03:28:34.879Z,6.60
2018-08-09T03:31:03.929Z,6.90
2018-08-09T03:33:33.837Z,6.40
2018-08-09T03:36:02.863Z,7.07
2018-08-09T03:38:31.877Z,6.33
2018-08-09T03:41:01.577Z,5.90
2018-08-09T03:43:30.556Z,7.17
2018-08-09T03:45:59.584Z,5.53
2018-08-09T03:48:28.564Z,7.13
2018-08-09T03:50:58.280Z,8.47
2018-08-09T03:53:27.304Z,8.40
2018-08-09T03:55:56.314Z,8.03
2018-08-09T03:58:25.996Z,8.40
2018-08-09T04:00:55.719Z,8.53
2018-08-09T04:03:24.744Z,10.33
2018-08-09T04:05:53.817Z,8.93
2018-08-09T04:08:22.965Z,7.93
2018-08-09T04:10:51.982Z,8.03
2018-08-09T04:13:21.597Z,7.80
2018-08-09T04:15:51.114Z,8.53
2018-08-09T04:18:20.934Z,8.53
2018-08-09T04:20:50.000Z,9.63
2018-08-09T04:23:19.019Z,9.50
2018-08-09T04:25:48.111Z,10.77
2018-08-09T04:28:17.186Z,9.80
2018-08-09T04:30:46.225Z,9.53
2018-08-09T04:33:15.309Z,10.60
2018-08-09T04:35:44.310Z,9.70
2018-08-09T04:38:13.315Z,10.73
2018-08-09T04:40:42.331Z,11.13
2018-08-09T04:43:11.401Z,12.57
2018-08-09T04:45:40.489Z,10.03
2018-08-09T04:48:09.607Z,8.30
2018-08-09T04:50:38.587Z,10.70
2018-08-09T04:53:07.759Z,7.40
2018-08-09T04:55:37.150Z,10.00
2018-08-09T04:58:06.367Z,7.97
2018-08-09T05:00:35.326Z,9.10
2018-08-09T05:03:04.404Z,10.18
2018-08-09T05:05:33.444Z,9.03
2018-08-09T05:08:02.496Z,10.30
2018-08-09T05:10:31.471Z,10.67
2018-08-09T05:13:00.517Z,10.40
2018-08-09T05:15:29.556Z,9.90
2018-08-09T05:17:58.708Z,11.63
2018-08-09T05:20:27.780Z,10.33
2018-08-09T05:22:58.217Z,9.93
2018-08-09T05:25:27.211Z,9.63
2018-08-09T05:27:56.231Z,9.70
2018-08-09T05:30:25.996Z,9.33
2018-08-09T05:32:55.058Z,11.93
2018-08-09T05:35:24.093Z,10.00
2018-08-09T05:37:53.077Z,10.80
2018-08-09T05:40:22.120Z,12.90
2018-08-09T05:42:51.157Z,9.87
2018-08-09T05:45:20.205Z,10.67
2018-08-09T05:47:49.184Z,9.67
2018-08-09T05:50:18.241Z,9.07
2018-08-09T05:52:47.925Z,8.87
2018-08-09T05:55:16.974Z,9.93
2018-08-09T05:57:45.983Z,9.87
2018-08-09T06:00:15.968Z,10.83
2018-08-09T06:02:45.748Z,9.77
2018-08-09T06:07:41.425Z,9.30
2018-08-09T06:10:10.508Z,9.70
2018-08-09T06:12:39.565Z,9.93
2018-08-09T06:15:08.748Z,10.47
2018-08-09T06:17:37.777Z,9.50
2018-08-09T06:20:07.007Z,9.37
2018-08-09T06:22:36.675Z,12.80
2018-08-09T06:25:06.656Z,10.80
2018-08-09T06:27:35.700Z,10.07
2018-08-09T06:30:06.756Z,9.60
2018-08-09T06:32:35.995Z,9.90
2018-08-09T06:35:06.788Z,10.63
2018-08-09T06:37:36.024Z,11.50
2018-08-09T06:40:07.823Z,13.67
2018-08-09T06:42:37.401Z,10.27
2018-08-09T06:45:06.577Z,11.03
2018-08-09T06:47:35.655Z,11.27
2018-08-09T06:50:05.625Z,8.77
2018-08-09T06:52:34.638Z,8.57
2018-08-09T06:55:07.360Z,9.57
2018-08-09T06:57:36.754Z,18.90
2018-08-09T07:00:09.675Z,8.67
2018-08-09T07:02:38.710Z,12.87
2018-08-09T07:05:07.945Z,11.63
2018-08-09T07:07:37.356Z,10.50
2018-08-09T07:10:07.683Z,9.13
2018-08-09T07:12:36.688Z,10.33
2018-08-09T07:15:08.723Z,9.30
2018-08-09T07:17:38.049Z,12.23
2018-08-09T07:20:08.264Z,11.43
2018-08-09T07:22:39.487Z,14.30
2018-08-09T07:25:08.869Z,10.70
2018-08-09T07:27:41.339Z,13.00
2018-08-09T07:30:12.398Z,12.27
2018-08-09T07:32:41.624Z,13.90
2018-08-09T07:35:11.541Z,10.93
2018-08-09T07:37:40.706Z,11.70
2018-08-09T07:40:11.472Z,11.43
2018-08-09T07:42:41.568Z,17.00
2018-08-09T07:45:12.017Z,10.80
2018-08-09T07:47:41.162Z,12.03
2018-08-09T07:50:10.784Z,10.80
2018-08-09T07:52:40.352Z,10.60
2018-08-09T07:55:10.551Z,10.00
2018-08-09T07:57:39.873Z,14.40
2018-08-09T08:00:11.200Z,13.43
2018-08-09T08:02:40.563Z,10.47
2018-08-09T08:05:09.948Z,12.00
2018-08-09T08:07:39.120Z,11.30
2018-08-09T08:10:09.509Z,10.17
2018-08-09T08:12:38.776Z,11.17
2018-08-09T08:15:09.265Z,11.53
2018-08-09T08:17:38.242Z,12.30
2018-08-09T08:20:07.851Z,13.27
2018-08-09T08:22:37.449Z,13.83
2018-08-09T08:25:09.584Z,14.53
2018-08-09T08:27:38.617Z,13.80
2018-08-09T08:30:10.183Z,12.20
2018-08-09T08:32:40.232Z,12.90
2018-08-09T08:35:10.015Z,14.30
2018-08-09T08:37:40.691Z,14.73
2018-08-09T08:40:10.924Z,15.50
2018-08-09T08:42:40.265Z,12.63
2018-08-09T08:45:12.995Z,14.97
2018-08-09T08:47:42.824Z,14.60
2018-08-09T08:50:12.319Z,15.77
2018-08-09T08:52:42.377Z,14.33
2018-08-09T08:55:12.612Z,16.80
2018-08-09T08:57:41.648Z,16.70
2018-08-09T09:00:11.958Z,16.57
2018-08-09T09:02:41.104Z,18.00
2018-08-09T09:05:12.203Z,18.10
2018-08-09T09:07:41.847Z,16.20
2018-08-09T09:10:12.463Z,17.67
2018-08-09T09:12:41.515Z,16.73
2018-08-09T09:15:16.821Z,18.10
2018-08-09T09:17:47.158Z,17.37
2018-08-09T09:20:17.804Z,19.27
2018-08-09T09:22:46.928Z,19.97
2018-08-09T09:25:21.284Z,18.90
2018-08-09T09:27:50.362Z,17.17
2018-08-09T09:30:19.399Z,18.13
2018-08-09T09:32:48.428Z,16.97
2018-08-09T09:35:22.641Z,18.70
2018-08-09T09:37:51.776Z,17.30
2018-08-09T09:40:22.080Z,19.33
2018-08-09T09:42:51.237Z,16.47
2018-08-09T09:45:20.340Z,17.33
2018-08-09T09:47:49.411Z,19.50
2018-08-09T09:50:18.510Z,16.73
2018-08-09T09:52:47.701Z,18.70
2018-08-09T09:55:16.797Z,16.57
2018-08-09T09:57:45.824Z,15.60
2018-08-09T10:00:20.464Z,16.43
2018-08-09T10:02:49.492Z,16.70
2018-08-09T10:05:19.857Z,15.70
2018-08-09T10:07:48.956Z,15.60
2018-08-09T10:10:18.715Z,15.80
2018-08-09T10:12:47.807Z,15.20
2018-08-09T10:15:17.495Z,15.20
2018-08-09T10:17:46.541Z,12.83
2018-08-09T10:20:22.069Z,13.57
2018-08-09T10:22:51.048Z,15.53
2018-08-09T10:25:20.716Z,14.07
2018-08-09T10:27:49.887Z,17.53
2018-08-09T10:30:18.951Z,17.07
2018-08-09T10:32:48.596Z,19.70
2018-08-09T10:35:17.686Z,17.53
2018-08-09T10:37:46.691Z,19.20
2018-08-09T10:40:16.369Z,18.63
2018-08-09T10:42:45.514Z,18.70
2018-08-09T10:45:15.067Z,19.27
2018-08-09T10:47:44.670Z,19.10
2018-08-09T10:50:13.731Z,19.33
2018-08-09T10:52:42.802Z,17.13
2018-08-09T10:55:12.148Z,19.20
2018-08-09T10:57:41.912Z,17.10
2018-08-09T11:00:12.463Z,20.87
2018-08-09T11:02:41.792Z,20.00
2018-08-09T11:05:10.873Z,22.33
2018-08-09T11:07:39.942Z,19.20
2018-08-09T11:10:09.849Z,21.43
2018-08-09T11:12:38.892Z,18.90
2018-08-09T11:15:10.776Z,20.07
2018-08-09T11:17:40.712Z,22.57
2018-08-09T11:20:09.896Z,20.47
2018-08-09T11:22:39.222Z,20.07
2018-08-09T11:25:09.617Z,20.37
2018-08-09T11:27:39.055Z,18.53
2018-08-09T11:30:08.755Z,17.47
2018-08-09T11:32:37.971Z,18.20
2018-08-09T11:35:07.319Z,19.63
2018-08-09T11:37:36.348Z,19.63
2018-08-09T11:40:05.616Z,17.97
2018-08-09T11:42:34.655Z,19.63
2018-08-09T11:45:03.957Z,20.13
2018-08-09T11:47:32.985Z,17.80
2018-08-09T11:50:02.064Z,22.83
2018-08-09T11:52:31.093Z,16.83
2018-08-09T11:55:00.156Z,23.03
2018-08-09T11:57:29.284Z,21.20
2018-08-09T11:59:58.493Z,26.00
2018-08-09T12:02:27.499Z,21.90
2018-08-09T12:04:56.545Z,22.50
2018-08-09T12:07:25.569Z,18.00
2018-08-09T12:09:54.664Z,20.70
2018-08-09T12:12:23.771Z,19.87
2018-08-09T12:14:52.808Z,21.17
2018-08-09T12:17:22.059Z,22.77
2018-08-09T12:19:51.273Z,21.30
2018-08-09T12:22:20.427Z,22.57
2018-08-09T12:24:49.529Z,21.53
2018-08-09T12:27:18.580Z,19.73
2018-08-09T12:29:47.676Z,23.57
2018-08-09T12:32:16.789Z,22.37
2018-08-09T12:34:46.232Z,21.27
2018-08-09T12:37:16.332Z,20.50
2018-08-09T12:39:45.570Z,18.50
2018-08-09T12:42:14.711Z,22.70
2018-08-09T12:44:44.033Z,21.90
2018-08-09T12:47:13.107Z,22.47
2018-08-09T12:49:42.184Z,18.37
2018-08-09T12:52:11.233Z,18.07
2018-08-09T12:54:40.279Z,19.13
2018-08-09T12:57:09.328Z,16.87
2018-08-09T12:59:38.355Z,19.27
2018-08-09T13:02:08.221Z,16.93
2018-08-09T13:04:37.601Z,20.80
2018-08-09T13:07:07.081Z,17.23
2018-08-09T13:09:36.156Z,16.27
2018-08-09T13:12:05.324Z,16.40
2018-08-09T13:14:34.477Z,17.63
2018-08-09T13:17:03.550Z,16.83
2018-08-09T13:19:33.180Z,16.60
2018-08-09T13:22:02.256Z,15.00
2018-08-09T13:24:31.353Z,14.57
2018-08-09T13:27:01.622Z,18.77
2018-08-09T13:29:30.889Z,15.90
2018-08-09T13:31:59.961Z,14.57
2018-08-09T13:34:29.100Z,13.83
2018-08-09T13:37:01.020Z,13.97
2018-08-09T13:39:30.093Z,13.77
2018-08-09T13:41:59.893Z,11.47
2018-08-09T13:44:28.970Z,10.27
2018-08-09T13:46:58.084Z,13.00
2018-08-09T13:49:27.213Z,12.63
2018-08-09T13:51:56.273Z,18.50
2018-08-09T13:54:25.461Z,18.40
2018-08-09T13:56:54.564Z,12.57
2018-08-09T13:59:25.508Z,19.73
2018-08-09T14:01:54.723Z,19.23
2018-08-09T14:04:24.457Z,11.03
2018-08-09T14:06:53.540Z,25.97
2018-08-09T14:09:22.752Z,17.87
2018-08-09T14:11:51.830Z,27.53
2018-08-09T14:14:20.916Z,12.33
2018-08-09T14:16:50.260Z,11.40
2018-08-09T14:19:19.895Z,6.80
2018-08-09T14:21:49.570Z,7.20
2018-08-09T14:24:18.605Z,14.00
2018-08-09T14:26:47.893Z,8.83
2018-08-09T14:29:16.970Z,10.77
2018-08-09T14:31:46.002Z,8.80
2018-08-09T14:34:15.141Z,7.23
2018-08-09T14:36:44.188Z,7.63
2018-08-09T14:39:13.267Z,12.03
2018-08-09T14:41:42.360Z,12.50
2018-08-09T14:44:11.569Z,10.77
2018-08-09T14:46:40.621Z,10.07
2018-08-09T14:49:09.741Z,8.23
2018-08-09T14:51:39.601Z,9.03
2018-08-09T14:54:12.220Z,8.07
2018-08-09T14:56:41.897Z,11.70
2018-08-09T14:59:11.727Z,13.53
2018-08-09T15:01:40.866Z,9.17
2018-08-09T15:04:10.564Z,7.53
2018-08-09T15:06:40.537Z,10.20
2018-08-09T15:09:11.752Z,10.57
2018-08-09T15:11:40.963Z,9.43
2018-08-09T15:14:10.817Z,8.73
2018-08-09T15:16:40.033Z,7.63
2018-08-09T15:19:09.122Z,6.90
2018-08-09T15:21:38.173Z,10.83
2018-08-09T15:24:08.255Z,6.80
2018-08-09T15:26:37.311Z,7.80
2018-08-09T15:29:07.805Z,8.47
2018-08-09T15:31:36.959Z,5.63
2018-08-09T15:47:05.530Z,5.93
2018-08-09T15:49:34.551Z,6.90
2018-08-09T15:52:03.965Z,6.03
2018-08-09T15:54:33.141Z,8.43
2018-08-09T15:57:02.726Z,7.90
2018-08-09T15:59:31.835Z,6.47
2018-08-09T16:02:00.963Z,12.97
2018-08-09T16:04:30.097Z,5.30
2018-08-09T16:06:59.254Z,5.90
2018-08-09T16:09:29.803Z,6.30
2018-08-09T16:11:58.964Z,7.90
2018-08-09T16:14:28.077Z,4.73
2018-08-09T16:16:57.839Z,5.47
2018-08-09T16:19:26.987Z,4.50
2018-08-09T16:21:56.203Z,5.57
2018-08-09T16:24:25.470Z,5.23
2018-08-09T16:26:55.346Z,5.07
2018-08-09T16:29:24.477Z,4.53
2018-08-09T16:31:54.642Z,5.83
2018-08-09T16:34:24.414Z,7.40
2018-08-09T16:36:54.151Z,6.37
2018-08-09T16:39:23.393Z,6.13
2018-08-09T16:41:52.417Z,4.53
2018-08-09T16:44:21.560Z,4.67
2018-08-09T16:46:50.649Z,8.70
2018-08-09T16:49:19.839Z,4.90
2018-08-09T16:51:48.940Z,4.53
2018-08-09T16:54:18.012Z,6.13
2018-08-09T16:56:50.315Z,4.93
2018-08-09T16:59:20.219Z,4.97
2018-08-09T17:01:49.402Z,4.80
2018-08-09T17:04:19.248Z,4.00
2018-08-09T17:06:48.711Z,3.67
2018-08-09T17:09:18.394Z,4.73
2018-08-09T17:11:47.525Z,3.67
2018-08-09T17:14:16.680Z,3.77
2018-08-09T17:16:46.614Z,3.67
2018-08-09T17:19:15.702Z,7.50
2018-08-09T17:21:44.741Z,3.57
2018-08-09T17:24:13.915Z,4.73
2018-08-09T17:39:42.896Z,6.17
2018-08-09T17:42:12.004Z,3.90
2018-08-09T17:44:41.023Z,4.17
2018-08-09T17:47:10.200Z,4.10
2018-08-09T17:49:39.558Z,4.10
2018-08-09T17:52:09.300Z,5.47
2018-08-09T17:54:38.339Z,3.80
2018-08-09T17:57:07.462Z,4.10
2018-08-09T17:59:36.949Z,7.57
2018-08-09T18:02:06.107Z,8.70
2018-08-09T18:04:35.896Z,4.13
2018-08-09T18:07:05.046Z,5.97
2018-08-09T18:09:34.751Z,4.50
2018-08-09T18:12:04.315Z,3.83
2018-08-09T18:14:33.748Z,4.17
2018-08-09T18:17:02.837Z,4.70
2018-08-09T18:19:31.921Z,5.93
2018-08-09T18:22:01.023Z,8.70
2018-08-09T18:24:30.060Z,6.57
2018-08-09T18:26:59.173Z,4.90
2018-08-09T18:29:28.346Z,4.27
2018-08-09T18:31:58.407Z,3.77
2018-08-09T18:34:27.473Z,3.97
2018-08-09T18:36:57.188Z,7.30
2018-08-09T18:39:26.365Z,10.17
2018-08-09T18:41:55.520Z,4.63
2018-08-09T18:44:25.233Z,4.40
2018-08-09T18:46:54.513Z,4.80
2018-08-09T18:49:23.904Z,4.47
2018-08-09T18:51:53.159Z,4.10
2018-08-09T18:54:22.386Z,4.60
2018-08-09T18:56:51.660Z,4.50
2018-08-09T18:59:21.415Z,4.40
2018-08-09T19:01:51.028Z,6.03
2018-08-09T19:04:20.300Z,5.60
2018-08-09T19:06:50.162Z,3.13
2018-08-09T19:09:19.332Z,3.10
2018-08-09T19:11:49.033Z,2.90
2018-08-09T19:14:18.211Z,6.20
2018-08-09T19:16:47.231Z,2.70
2018-08-09T19:19:16.490Z,5.67
2018-08-09T19:21:45.937Z,3.17
2018-08-09T19:24:15.063Z,3.43
2018-08-09T19:26:44.259Z,5.33
2018-08-09T19:29:14.087Z,4.73
2018-08-09T19:31:43.169Z,3.33
2018-08-09T19:34:12.272Z,3.07
2018-08-09T19:36:41.534Z,4.60
2018-08-09T19:39:13.276Z,4.30
2018-08-09T19:41:43.546Z,3.70
2018-08-09T19:44:13.850Z,3.63
2018-08-09T19:46:43.511Z,2.97
2018-08-09T19:49:13.174Z,4.20
2018-08-09T19:51:42.897Z,3.53
2018-08-09T19:54:11.998Z,3.10
2018-08-09T19:56:41.575Z,2.90
2018-08-09T19:59:11.228Z,3.20
2018-08-09T20:01:40.915Z,3.57
2018-08-09T20:04:10.743Z,3.00
2018-08-09T20:06:39.869Z,3.67
2018-08-09T20:09:10.274Z,3.83
2018-08-09T20:11:39.442Z,13.63
2018-08-09T20:14:08.615Z,2.43
2018-08-09T20:16:37.801Z,3.30
2018-08-09T20:19:07.844Z,3.73
2018-08-09T20:21:37.097Z,2.67
2018-08-09T20:24:06.190Z,2.60
2018-08-09T20:26:35.353Z,2.10
2018-08-09T20:29:05.222Z,2.60
2018-08-09T20:31:34.963Z,2.40
2018-08-09T20:34:04.125Z,4.63
2018-08-09T20:36:33.148Z,2.63
2018-08-09T20:39:02.929Z,2.73
2018-08-09T20:41:32.789Z,2.83
2018-08-09T20:44:02.451Z,2.33
2018-08-09T20:46:31.922Z,2.90
2018-08-09T20:49:01.092Z,3.80
2018-08-09T20:51:30.235Z,3.23
2018-08-09T20:53:59.582Z,3.23
2018-08-09T20:56:28.783Z,3.13
2018-08-09T20:58:58.596Z,7.13
2018-08-09T21:01:27.863Z,6.07
2018-08-09T21:03:57.045Z,3.07
2018-08-09T21:06:26.142Z,4.23
2018-08-09T21:08:55.293Z,3.00
2018-08-09T21:11:24.368Z,3.27
2018-08-09T21:13:56.417Z,2.90
2018-08-09T21:16:25.473Z,3.10
2018-08-09T21:18:55.088Z,3.13
2018-08-09T21:21:24.271Z,3.30
2018-08-09T21:23:54.095Z,2.60
2018-08-09T21:26:23.267Z,4.63
2018-08-09T21:28:52.305Z,6.67
2018-08-09T21:31:21.558Z,3.47
2018-08-09T21:33:51.344Z,4.27
2018-08-09T21:36:20.438Z,3.27
2018-08-09T21:38:49.526Z,4.23
2018-08-09T21:41:18.988Z,2.83
2018-08-09T21:43:48.146Z,3.50
2018-08-09T21:46:18.540Z,2.30
2018-08-09T21:48:47.614Z,4.40
2018-08-09T21:51:16.676Z,2.57
2018-08-09T21:53:45.797Z,5.70
2018-08-09T21:56:15.525Z,2.93
2018-08-09T21:58:46.298Z,5.80
2018-08-09T22:01:15.512Z,2.60
2018-08-09T22:03:44.571Z,1.93
2018-08-09T22:06:18.898Z,3.90
2018-08-09T22:08:53.278Z,3.17
2018-08-09T22:11:27.685Z,3.00
2018-08-09T22:14:01.964Z,3.43
2018-08-09T22:16:36.514Z,3.93
2018-08-09T22:19:11.244Z,2.23
2018-08-09T22:21:45.573Z,4.23
2018-08-09T22:24:14.668Z,2.63
2018-08-09T22:26:43.822Z,1.60
2018-08-09T22:29:12.890Z,3.90
2018-08-09T22:31:41.951Z,2.80
2018-08-09T22:34:10.967Z,1.57
2018-08-09T22:36:40.058Z,2.20
2018-08-09T22:39:09.834Z,1.40
2018-08-09T22:41:38.850Z,1.63
2018-08-09T22:44:08.029Z,1.17
2018-08-09T22:46:37.108Z,1.47
2018-08-09T22:49:06.253Z,1.57
2018-08-09T22:51:35.304Z,2.93
2018-08-09T22:54:04.965Z,2.03
2018-08-09T22:56:34.096Z,1.43
2018-08-09T22:59:03.568Z,1.77
2018-08-09T23:01:33.243Z,2.27
2018-08-09T23:04:02.300Z,1.27
2018-08-09T23:06:32.148Z,1.40
2018-08-09T23:09:02.220Z,1.63
2018-08-09T23:11:31.261Z,1.20
2018-08-09T23:14:00.496Z,1.40
2018-08-09T23:16:30.342Z,1.97
2018-08-09T23:18:59.445Z,1.27
2018-08-09T23:21:28.512Z,2.70
2018-08-09T23:23:57.616Z,5.43
2018-08-09T23:26:28.045Z,1.20
2018-08-09T23:28:57.839Z,2.93
2018-08-09T23:31:26.940Z,2.43
2018-08-09T23:33:56.025Z,1.10
2018-08-09T23:36:25.050Z,2.23
2018-08-09T23:38:54.831Z,1.10
2018-08-09T23:41:23.828Z,4.77
2018-08-09T23:43:52.929Z,1.80
2018-08-09T23:46:21.939Z,1.20
2018-08-09T23:48:51.129Z,1.60
2018-08-09T23:51:20.160Z,0.87
2018-08-09T23:53:49.511Z,1.10
2018-08-09T23:56:18.529Z,1.20
2018-08-09T23:58:47.548Z,3.27
